createdAt,value
2018-07-13T00:00:01.148Z,6.90
2018-07-13T00:02:29.575Z,9.27
2018-07-13T00:04:58.056Z,8.13
2018-07-13T00:07:26.540Z,8.33
2018-07-13T00:09:55.122Z,6.90
2018-07-13T00:12:23.628Z,8.87
2018-07-13T00:14:57.616Z,6.60
2018-07-13T00:17:26.167Z,6.20
2018-07-13T00:19:54.612Z,6.03
2018-07-13T00:22:23.171Z,8.47
2018-07-13T00:24:51.635Z,7.73
2018-07-13T00:27:20.120Z,7.37
2018-07-13T00:29:48.589Z,8.03
2018-07-13T00:32:17.083Z,8.07
2018-07-13T00:34:45.560Z,7.70
2018-07-13T00:37:14.042Z,8.80
2018-07-13T00:39:42.626Z,6.73
2018-07-13T00:42:11.075Z,8.07
2018-07-13T00:44:39.576Z,7.47
2018-07-13T00:47:08.177Z,6.93
2018-07-13T00:49:36.627Z,8.57
2018-07-13T00:52:05.141Z,7.57
2018-07-13T00:54:33.680Z,8.57
2018-07-13T00:57:02.195Z,8.07
2018-07-13T00:59:30.659Z,7.20
2018-07-13T01:01:59.140Z,8.50
2018-07-13T01:04:27.591Z,9.73
2018-07-13T01:06:56.041Z,7.60
2018-07-13T01:09:24.596Z,8.10
2018-07-13T01:11:53.064Z,9.03
2018-07-13T01:14:21.557Z,7.27
2018-07-13T01:16:50.000Z,9.37
2018-07-13T01:19:18.460Z,6.83
2018-07-13T01:21:46.911Z,7.83
2018-07-13T01:24:15.408Z,7.30
2018-07-13T01:26:43.852Z,6.77
2018-07-13T01:29:12.365Z,10.93
2018-07-13T01:31:40.874Z,7.40
2018-07-13T01:34:09.605Z,7.83
2018-07-13T01:36:38.197Z,7.97
2018-07-13T01:39:07.995Z,10.70
2018-07-13T01:41:36.442Z,7.80
2018-07-13T01:44:05.279Z,6.80
2018-07-13T01:46:33.772Z,6.70
2018-07-13T01:49:02.415Z,8.67
2018-07-13T01:51:30.911Z,7.70
2018-07-13T01:53:59.409Z,7.00
2018-07-13T01:56:27.868Z,8.90
2018-07-13T01:58:56.335Z,6.83
2018-07-13T02:01:24.936Z,8.70
2018-07-13T02:03:53.407Z,9.63
2018-07-13T02:06:22.035Z,8.50
2018-07-13T02:08:50.488Z,8.50
2018-07-13T02:11:19.052Z,7.07
2018-07-13T02:13:47.743Z,10.53
2018-07-13T02:16:16.255Z,7.63
2018-07-13T02:18:44.708Z,8.13
2018-07-13T02:21:13.197Z,8.07
2018-07-13T02:23:41.798Z,9.33
2018-07-13T02:26:10.280Z,8.30
2018-07-13T02:28:38.751Z,7.47
2018-07-13T02:31:07.231Z,8.83
2018-07-13T02:33:35.863Z,7.57
2018-07-13T02:36:04.296Z,8.70
2018-07-13T02:38:32.761Z,8.73
2018-07-13T02:41:01.232Z,8.53
2018-07-13T02:43:29.723Z,10.03
2018-07-13T02:45:58.210Z,9.13
2018-07-13T02:48:26.682Z,9.33
2018-07-13T02:50:55.164Z,10.67
2018-07-13T02:53:23.655Z,9.20
2018-07-13T02:55:52.248Z,9.47
2018-07-13T02:58:20.903Z,8.17
2018-07-13T03:00:49.369Z,10.67
2018-07-13T03:03:17.839Z,14.33
2018-07-13T03:05:46.313Z,13.30
2018-07-13T03:08:14.793Z,9.27
2018-07-13T03:10:43.269Z,9.27
2018-07-13T03:13:11.768Z,10.80
2018-07-13T03:15:40.778Z,10.00
2018-07-13T03:18:09.224Z,11.07
2018-07-13T03:20:37.700Z,10.33
2018-07-13T03:23:06.171Z,10.60
2018-07-13T03:25:34.642Z,10.03
2018-07-13T03:28:03.111Z,9.90
2018-07-13T03:30:31.649Z,9.83
2018-07-13T03:33:00.119Z,11.37
2018-07-13T03:35:28.620Z,16.67
2018-07-13T03:37:57.087Z,13.23
2018-07-13T03:40:25.831Z,15.53
2018-07-13T03:42:54.245Z,14.53
2018-07-13T03:45:22.726Z,12.83
2018-07-13T03:47:51.208Z,14.23
2018-07-13T03:50:19.755Z,14.30
2018-07-13T03:52:48.269Z,14.57
2018-07-13T03:55:16.750Z,13.43
2018-07-13T03:57:45.216Z,15.13
2018-07-13T04:00:13.699Z,15.70
2018-07-13T04:02:42.192Z,18.87
2018-07-13T04:05:10.663Z,23.07
2018-07-13T04:07:39.121Z,13.30
2018-07-13T04:10:07.751Z,14.70
2018-07-13T04:12:36.293Z,14.47
2018-07-13T04:15:04.784Z,14.97
2018-07-13T04:17:33.491Z,12.77
2018-07-13T04:20:01.976Z,19.53
2018-07-13T04:22:30.443Z,14.00
2018-07-13T04:24:59.088Z,14.37
2018-07-13T04:27:27.578Z,13.83
2018-07-13T04:29:56.307Z,11.80
2018-07-13T04:32:24.851Z,13.87
2018-07-13T04:34:53.593Z,11.67
2018-07-13T04:37:22.064Z,12.37
2018-07-13T04:39:50.616Z,13.23
2018-07-13T04:42:19.082Z,15.50
2018-07-13T04:44:47.700Z,12.77
2018-07-13T04:47:16.159Z,11.67
2018-07-13T04:49:44.626Z,14.53
2018-07-13T04:52:13.152Z,11.70
2018-07-13T04:54:41.607Z,12.87
2018-07-13T04:57:10.180Z,14.67
2018-07-13T04:59:38.667Z,11.67
2018-07-13T05:02:07.117Z,12.17
2018-07-13T05:04:35.583Z,12.77
2018-07-13T05:07:04.081Z,12.37
2018-07-13T05:09:32.599Z,13.43
2018-07-13T05:12:01.127Z,14.70
2018-07-13T05:14:29.576Z,17.13
2018-07-13T05:16:58.051Z,13.83
2018-07-13T05:19:26.685Z,13.33
2018-07-13T05:21:55.229Z,16.00
2018-07-13T05:24:23.679Z,13.20
2018-07-13T05:26:52.279Z,17.83
2018-07-13T05:29:20.734Z,11.43
2018-07-13T05:31:49.219Z,11.53
2018-07-13T05:34:17.791Z,13.83
2018-07-13T05:36:46.278Z,11.47
2018-07-13T05:39:14.740Z,11.37
2018-07-13T05:41:43.614Z,10.30
2018-07-13T05:44:12.152Z,15.70
2018-07-13T05:46:40.955Z,11.57
2018-07-13T05:49:09.619Z,12.63
2018-07-13T05:51:38.796Z,16.13
2018-07-13T05:54:07.243Z,24.80
2018-07-13T05:56:35.744Z,16.93
2018-07-13T05:59:04.212Z,22.80
2018-07-13T06:01:32.711Z,13.63
2018-07-13T06:04:01.224Z,15.23
2018-07-13T06:06:29.738Z,18.47
2018-07-13T06:08:58.258Z,16.33
2018-07-13T06:11:26.747Z,14.90
2018-07-13T06:13:55.259Z,15.10
2018-07-13T06:16:23.731Z,11.60
2018-07-13T06:18:52.206Z,14.90
2018-07-13T06:21:21.076Z,16.33
2018-07-13T06:23:50.039Z,16.30
2018-07-13T06:26:18.958Z,12.13
2018-07-13T06:28:47.766Z,14.23
2018-07-13T06:31:16.691Z,13.90
2018-07-13T06:33:45.631Z,14.10
2018-07-13T06:36:14.545Z,13.20
2018-07-13T06:38:43.420Z,12.13
2018-07-13T06:41:12.426Z,17.63
2018-07-13T06:43:41.300Z,11.27
2018-07-13T06:46:10.147Z,10.30
2018-07-13T06:48:38.974Z,11.73
2018-07-13T06:51:08.304Z,12.93
2018-07-13T06:53:37.109Z,13.33
2018-07-13T06:56:06.060Z,12.07
2018-07-13T06:58:46.222Z,10.87
2018-07-13T07:01:15.122Z,10.07
2018-07-13T07:04:56.641Z,11.00
2018-07-13T07:07:26.734Z,11.90
2018-07-13T07:09:56.880Z,10.80
2018-07-13T07:13:32.912Z,14.70
2018-07-13T07:16:02.018Z,12.67
2018-07-13T07:18:30.888Z,16.53
2018-07-13T07:21:00.073Z,16.17
2018-07-13T07:23:29.680Z,18.43
2018-07-13T07:26:00.412Z,20.20
2018-07-13T07:28:29.330Z,17.47
2018-07-13T07:30:59.027Z,23.77
2018-07-13T07:33:28.015Z,14.97
2018-07-13T07:35:57.614Z,17.33
2018-07-13T07:38:26.527Z,14.83
2018-07-13T07:40:55.442Z,13.40
2018-07-13T07:43:24.369Z,12.80
2018-07-13T07:45:53.229Z,13.47
2018-07-13T07:48:22.111Z,12.73
2018-07-13T07:50:51.145Z,11.50
2018-07-13T07:53:20.045Z,15.67
2018-07-13T07:55:48.912Z,12.20
2018-07-13T07:58:17.911Z,14.60
2018-07-13T08:00:46.800Z,17.43
2018-07-13T08:03:15.668Z,12.67
2018-07-13T08:05:44.550Z,13.40
2018-07-13T08:08:13.649Z,12.70
2018-07-13T08:10:44.021Z,10.93
2018-07-13T08:13:12.860Z,9.30
2018-07-13T08:15:41.776Z,10.93
2018-07-13T08:18:10.857Z,16.60
2018-07-13T08:20:44.648Z,11.20
2018-07-13T08:23:13.857Z,11.57
2018-07-13T08:25:44.510Z,14.37
2018-07-13T08:28:14.006Z,12.30
2018-07-13T08:30:48.209Z,21.73
2018-07-13T08:33:17.110Z,10.73
2018-07-13T08:35:45.956Z,13.70
2018-07-13T08:38:15.113Z,12.03
2018-07-13T08:40:44.098Z,14.03
2018-07-13T08:43:13.252Z,12.23
2018-07-13T08:45:42.141Z,12.43
2018-07-13T08:48:11.025Z,26.53
2018-07-13T08:50:39.943Z,12.37
2018-07-13T08:53:08.841Z,14.20
2018-07-13T08:55:37.906Z,9.30
2018-07-13T08:58:06.827Z,11.20
2018-07-13T09:00:35.809Z,14.63
2018-07-13T09:03:04.753Z,12.37
2018-07-13T09:05:33.794Z,18.80
2018-07-13T09:08:02.844Z,11.53
2018-07-13T09:10:31.756Z,16.43
2018-07-13T09:13:00.653Z,11.43
2018-07-13T09:15:29.558Z,9.30
2018-07-13T09:17:58.476Z,9.27
2018-07-13T09:20:27.486Z,9.03
2018-07-13T09:22:56.337Z,8.37
2018-07-13T09:25:25.277Z,10.67
2018-07-13T09:27:54.276Z,14.63
2018-07-13T09:30:23.317Z,8.97
2018-07-13T09:32:52.227Z,7.73
2018-07-13T09:35:21.708Z,8.93
2018-07-13T09:37:50.703Z,12.10
2018-07-13T09:40:19.797Z,26.47
2018-07-13T09:42:52.013Z,7.60
2018-07-13T09:45:20.941Z,9.17
2018-07-13T09:47:49.540Z,8.37
2018-07-13T09:50:18.539Z,6.80
2018-07-13T09:52:47.603Z,7.27
2018-07-13T09:55:16.521Z,8.60
2018-07-13T09:57:45.372Z,6.23
2018-07-13T10:00:14.511Z,7.03
2018-07-13T10:02:43.462Z,6.70
2018-07-13T10:05:12.552Z,11.60
2018-07-13T10:07:41.788Z,8.17
2018-07-13T10:10:10.996Z,11.53
2018-07-13T10:12:39.882Z,7.83
2018-07-13T10:15:09.085Z,6.90
2018-07-13T10:17:38.041Z,10.43
2018-07-13T10:20:07.162Z,5.50
2018-07-13T10:22:36.076Z,4.73
2018-07-13T10:25:05.675Z,4.93
2018-07-13T10:27:36.797Z,6.73
2018-07-13T10:30:07.342Z,9.80
2018-07-13T10:32:36.550Z,8.17
2018-07-13T10:35:06.917Z,5.50
2018-07-13T10:37:35.835Z,7.87
2018-07-13T10:40:04.800Z,4.77
2018-07-13T10:42:33.811Z,7.20
2018-07-13T10:45:03.136Z,7.50
2018-07-13T10:47:32.023Z,11.30
2018-07-13T10:50:00.892Z,7.00
2018-07-13T10:52:30.594Z,10.67
2018-07-13T10:55:00.376Z,6.70
2018-07-13T10:57:29.222Z,55.17
2018-07-13T10:59:58.056Z,21.87
2018-07-13T11:02:27.105Z,61.97
2018-07-13T11:04:55.963Z,95.03
2018-07-13T11:07:24.844Z,34.40
2018-07-13T11:09:53.723Z,54.20
2018-07-13T11:12:22.579Z,28.87
2018-07-13T11:14:51.407Z,99.47
2018-07-13T11:17:20.229Z,69.00
2018-07-13T11:19:49.288Z,38.70
2018-07-13T11:22:18.112Z,27.87
2018-07-13T11:24:47.591Z,22.93
2018-07-13T11:27:16.443Z,14.20
2018-07-13T11:29:45.439Z,26.13
2018-07-13T11:32:14.269Z,24.70
2018-07-13T11:34:43.195Z,14.17
2018-07-13T11:37:12.403Z,11.77
2018-07-13T11:39:41.092Z,19.10
2018-07-13T11:42:09.920Z,13.63
2018-07-13T11:44:38.814Z,8.97
2018-07-13T11:47:07.632Z,12.10
2018-07-13T11:49:36.602Z,11.27
2018-07-13T11:52:05.521Z,10.57
2018-07-13T11:54:34.362Z,7.23
2018-07-13T11:57:03.225Z,8.50
2018-07-13T11:59:32.180Z,6.93
2018-07-13T12:02:04.886Z,7.67
2018-07-13T12:04:33.863Z,8.78
2018-07-13T12:07:02.695Z,8.63
2018-07-13T12:09:31.549Z,8.37
2018-07-13T12:12:03.759Z,7.77
2018-07-13T12:14:32.611Z,26.87
2018-07-13T12:17:01.566Z,51.23
2018-07-13T12:19:30.426Z,87.87
2018-07-13T12:21:59.313Z,24.57
2018-07-13T12:24:28.137Z,59.17
2018-07-13T12:26:57.055Z,76.57
2018-07-13T12:29:25.822Z,28.73
2018-07-13T12:31:54.670Z,38.87
2018-07-13T12:34:23.595Z,70.87
2018-07-13T12:36:52.695Z,22.10
2018-07-13T12:39:21.577Z,23.97
2018-07-13T12:41:50.656Z,20.10
2018-07-13T12:44:19.506Z,22.73
2018-07-13T12:46:48.455Z,13.83
2018-07-13T12:49:17.280Z,12.00
2018-07-13T12:51:46.188Z,7.73
2018-07-13T12:54:15.132Z,27.23
2018-07-13T12:57:47.341Z,8.63
2018-07-13T13:00:16.350Z,7.73
2018-07-13T13:02:45.180Z,8.07
2018-07-13T13:05:14.434Z,6.20
2018-07-13T13:07:43.584Z,9.43
2018-07-13T13:10:12.481Z,5.85
2018-07-13T13:12:41.499Z,5.93
2018-07-13T13:15:10.397Z,12.45
2018-07-13T13:17:42.998Z,25.40
2018-07-13T13:20:11.949Z,6.20
2018-07-13T13:22:44.041Z,14.78
2018-07-13T13:25:13.463Z,34.48
2018-07-13T13:27:42.811Z,118.70
2018-07-13T13:30:12.278Z,66.77
2018-07-13T13:32:41.129Z,20.50
2018-07-13T13:35:10.061Z,58.03
2018-07-13T13:37:38.960Z,110.22
2018-07-13T13:40:08.084Z,17.53
2018-07-13T13:42:37.040Z,9.85
2018-07-13T13:45:06.156Z,20.00
2018-07-13T13:47:35.217Z,9.03
2018-07-13T13:50:04.072Z,6.87
2018-07-13T13:52:33.002Z,10.63
2018-07-13T13:55:02.006Z,8.80
2018-07-13T13:57:30.875Z,8.13
2018-07-13T13:59:59.858Z,6.20
2018-07-13T14:02:28.711Z,9.15
2018-07-13T14:04:57.750Z,5.65
2018-07-13T14:07:26.697Z,7.15
2018-07-13T14:09:55.585Z,5.45
2018-07-13T14:12:24.707Z,5.60
2018-07-13T14:14:53.658Z,6.90
2018-07-13T14:17:22.697Z,6.37
2018-07-13T14:19:51.644Z,5.67
2018-07-13T14:22:20.648Z,6.35
2018-07-13T14:24:49.490Z,9.40
2018-07-13T14:27:18.529Z,7.80
2018-07-13T14:29:47.420Z,5.78
2018-07-13T14:32:16.476Z,7.05
2018-07-13T14:34:45.517Z,6.80
2018-07-13T14:37:14.103Z,5.55
2018-07-13T14:39:42.747Z,4.62
2018-07-13T14:42:11.484Z,7.50
2018-07-13T14:44:39.960Z,4.65
2018-07-13T14:47:08.850Z,5.12
2018-07-13T14:49:37.336Z,5.37
2018-07-13T14:52:05.852Z,5.87
2018-07-13T14:54:34.601Z,6.53
2018-07-13T14:57:03.184Z,5.15
2018-07-13T14:59:31.842Z,6.90
2018-07-13T15:02:00.358Z,5.12
2018-07-13T15:04:28.909Z,7.28
2018-07-13T15:06:57.493Z,8.53
2018-07-13T15:09:25.903Z,7.87
2018-07-13T15:11:54.459Z,8.13
2018-07-13T15:14:23.046Z,40.30
2018-07-13T15:16:51.575Z,72.17
2018-07-13T15:19:20.049Z,117.28
2018-07-13T15:21:48.834Z,13.55
2018-07-13T15:24:17.389Z,34.23
2018-07-13T15:26:46.010Z,43.73
2018-07-13T15:29:14.632Z,26.68
2018-07-13T15:31:43.255Z,20.92
2018-07-13T15:34:11.754Z,13.88
2018-07-13T15:36:40.374Z,8.30
2018-07-13T15:39:09.067Z,10.05
2018-07-13T15:41:37.620Z,112.15
2018-07-13T15:44:06.103Z,104.55
2018-07-13T15:46:34.780Z,40.00
2018-07-13T15:49:03.295Z,12.10
2018-07-13T15:51:32.096Z,49.53
2018-07-13T15:54:01.005Z,22.32
2018-07-13T15:56:29.760Z,29.18
2018-07-13T15:58:58.312Z,24.72
2018-07-13T16:01:26.992Z,14.28
2018-07-13T16:03:56.368Z,5.75
2018-07-13T16:06:24.855Z,7.75
2018-07-13T16:08:53.396Z,10.82
2018-07-13T16:11:22.443Z,10.72
2018-07-13T16:13:50.917Z,4.05
2018-07-13T16:16:19.559Z,10.00
2018-07-13T16:18:48.178Z,6.17
2018-07-13T16:21:16.640Z,6.62
2018-07-13T16:23:45.123Z,8.28
2018-07-13T16:26:13.596Z,5.80
2018-07-13T16:28:42.447Z,6.55
2018-07-13T16:31:11.371Z,4.85
2018-07-13T16:33:39.908Z,4.25
2018-07-13T16:36:08.409Z,3.70
2018-07-13T16:38:36.872Z,7.47
2018-07-13T16:41:05.341Z,3.90
2018-07-13T16:43:33.927Z,5.03
2018-07-13T16:46:02.429Z,7.12
2018-07-13T16:48:30.973Z,5.87
2018-07-13T16:50:59.628Z,6.20
2018-07-13T16:53:28.155Z,7.55
2018-07-13T16:55:56.637Z,6.58
2018-07-13T16:58:25.188Z,7.53
2018-07-13T17:00:53.640Z,6.75
2018-07-13T17:03:22.176Z,6.85
2018-07-13T17:05:50.636Z,4.35
2018-07-13T17:08:19.476Z,6.78
2018-07-13T17:10:47.992Z,4.20
2018-07-13T17:13:16.633Z,6.70
2018-07-13T17:15:45.115Z,4.80
2018-07-13T17:18:13.573Z,5.03
2018-07-13T17:20:43.120Z,8.58
2018-07-13T17:23:11.607Z,4.25
2018-07-13T17:25:40.144Z,7.25
2018-07-13T17:28:08.612Z,6.83
2018-07-13T17:30:37.163Z,5.70
2018-07-13T17:33:05.632Z,47.48
2018-07-13T17:35:34.196Z,59.10
2018-07-13T17:38:02.663Z,11.75
2018-07-13T17:40:31.382Z,27.40
2018-07-13T17:42:59.927Z,12.33
2018-07-13T17:45:29.404Z,21.80
2018-07-13T17:47:58.582Z,102.42
2018-07-13T17:50:27.141Z,76.42
2018-07-13T17:52:55.607Z,86.12
2018-07-13T17:55:24.561Z,26.23
2018-07-13T17:57:53.006Z,13.08
2018-07-13T18:00:21.746Z,15.93
2018-07-13T18:02:50.254Z,11.50
2018-07-13T18:05:18.828Z,11.97
2018-07-13T18:07:47.352Z,10.03
2018-07-13T18:10:15.944Z,5.97
2018-07-13T18:12:44.521Z,10.63
2018-07-13T18:15:12.924Z,8.78
2018-07-13T18:17:41.766Z,5.83
2018-07-13T18:20:10.323Z,9.05
2018-07-13T18:22:38.909Z,6.87
2018-07-13T18:25:07.386Z,5.78
2018-07-13T18:27:35.867Z,5.12
2018-07-13T18:30:04.634Z,6.53
2018-07-13T18:32:33.141Z,6.25
2018-07-13T18:35:01.616Z,5.65
2018-07-13T18:37:30.091Z,5.90
2018-07-13T18:39:58.562Z,7.35
2018-07-13T18:42:27.040Z,8.08
2018-07-13T18:44:55.560Z,4.45
2018-07-13T18:47:24.028Z,6.85
2018-07-13T18:49:52.491Z,4.60
2018-07-13T18:52:20.961Z,5.58
2018-07-13T18:54:49.448Z,5.97
2018-07-13T18:57:18.018Z,5.37
2018-07-13T18:59:46.639Z,4.75
2018-07-13T19:02:15.120Z,4.60
2018-07-13T19:04:43.668Z,5.12
2018-07-13T19:07:12.164Z,4.35
2018-07-13T19:09:40.665Z,3.98
2018-07-13T19:12:09.136Z,5.75
2018-07-13T19:14:37.661Z,5.33
2018-07-13T19:17:06.158Z,5.25
2018-07-13T19:19:34.636Z,5.53
2018-07-13T19:22:03.105Z,7.92
2018-07-13T19:24:31.600Z,5.67
2018-07-13T19:27:00.128Z,5.05
2018-07-13T19:29:28.597Z,7.12
2018-07-13T19:31:57.068Z,4.60
2018-07-13T19:34:25.578Z,3.92
2018-07-13T19:36:54.210Z,4.47
2018-07-13T19:39:22.711Z,5.28
2018-07-13T19:41:51.349Z,3.50
2018-07-13T19:44:19.838Z,5.85
2018-07-13T19:47:51.716Z,4.97
2018-07-13T19:50:20.207Z,7.27
2018-07-13T19:52:48.945Z,6.93
2018-07-13T19:55:18.654Z,5.53
2018-07-13T19:57:47.373Z,12.05
2018-07-13T20:00:15.877Z,5.45
2018-07-13T20:02:44.335Z,3.50
2018-07-13T20:05:12.783Z,5.08
2018-07-13T20:07:41.332Z,8.68
2018-07-13T20:10:09.804Z,5.50
2018-07-13T20:12:38.296Z,5.97
2018-07-13T20:15:06.755Z,5.30
2018-07-13T20:17:35.234Z,7.13
2018-07-13T20:20:03.701Z,8.60
2018-07-13T20:22:32.259Z,12.68
2018-07-13T20:25:00.739Z,6.35
2018-07-13T20:27:30.261Z,6.37
2018-07-13T20:29:58.728Z,5.53
2018-07-13T20:32:27.295Z,6.05
2018-07-13T20:34:56.451Z,9.08
2018-07-13T20:37:25.089Z,6.57
2018-07-13T20:39:53.610Z,9.23
2018-07-13T20:42:22.098Z,5.70
2018-07-13T20:44:50.565Z,6.40
2018-07-13T20:47:19.036Z,6.10
2018-07-13T20:49:47.505Z,7.12
2018-07-13T20:52:16.043Z,5.60
2018-07-13T20:54:44.763Z,7.25
2018-07-13T20:57:13.300Z,7.12
2018-07-13T20:59:41.854Z,20.93
2018-07-13T21:02:10.714Z,27.23
2018-07-13T21:04:39.446Z,21.60
2018-07-13T21:07:08.339Z,29.50
2018-07-13T21:09:37.389Z,25.75
2018-07-13T21:12:06.391Z,17.80
2018-07-13T21:14:35.648Z,22.48
2018-07-13T21:17:04.947Z,23.95
2018-07-13T21:19:33.902Z,25.92
2018-07-13T21:22:03.143Z,49.45
2018-07-13T21:24:32.103Z,37.98
2018-07-13T21:27:01.272Z,55.80
2018-07-13T21:29:30.212Z,59.30
2018-07-13T21:31:59.275Z,63.87
2018-07-13T21:34:28.344Z,72.30
2018-07-13T21:36:56.992Z,51.73
2018-07-13T21:39:25.465Z,23.92
2018-07-13T21:41:53.972Z,36.35
2018-07-13T21:44:22.736Z,24.67
2018-07-13T21:46:51.227Z,23.70
2018-07-13T21:49:19.712Z,16.40
2018-07-13T21:51:48.303Z,13.15
2018-07-13T21:54:16.844Z,11.50
2018-07-13T21:56:45.537Z,10.17
2018-07-13T21:59:14.198Z,13.30
2018-07-13T22:01:43.888Z,7.70
2018-07-13T22:04:12.347Z,11.43
2018-07-13T22:06:41.134Z,10.13
2018-07-13T22:09:09.620Z,8.73
2018-07-13T22:11:38.214Z,8.27
2018-07-13T22:14:06.880Z,9.40
2018-07-13T22:16:35.418Z,12.23
2018-07-13T22:19:03.889Z,10.43
2018-07-13T22:21:32.631Z,18.90
2018-07-13T22:24:01.193Z,57.83
2018-07-13T22:26:29.866Z,66.40
2018-07-13T22:28:58.461Z,67.10
2018-07-13T22:31:27.034Z,45.52
2018-07-13T22:33:55.552Z,41.03
2018-07-13T22:36:24.335Z,36.07
2018-07-13T22:38:52.820Z,33.53
2018-07-13T22:41:21.312Z,23.20
2018-07-13T22:43:50.013Z,16.33
2018-07-13T22:46:18.820Z,12.20
2018-07-13T22:48:47.683Z,11.43
2018-07-13T22:51:16.364Z,58.33
2018-07-13T22:53:44.943Z,70.63
2018-07-13T22:56:15.105Z,58.67
2018-07-13T22:58:43.649Z,32.40
2018-07-13T23:01:12.169Z,23.10
2018-07-13T23:03:40.726Z,26.03
2018-07-13T23:06:09.204Z,23.87
2018-07-13T23:08:37.692Z,18.47
2018-07-13T23:11:06.405Z,17.27
2018-07-13T23:13:34.896Z,10.70
2018-07-13T23:16:03.396Z,13.23
2018-07-13T23:18:31.874Z,12.60
2018-07-13T23:21:00.327Z,10.93
2018-07-13T23:23:28.941Z,8.77
2018-07-13T23:25:57.446Z,11.90
2018-07-13T23:28:25.928Z,9.57
2018-07-13T23:30:54.469Z,10.67
2018-07-13T23:33:22.936Z,12.33
2018-07-13T23:35:51.443Z,8.77
2018-07-13T23:38:20.008Z,19.37
2018-07-13T23:40:48.611Z,14.93
2018-07-13T23:43:17.063Z,11.40
2018-07-13T23:45:45.565Z,11.03
2018-07-13T23:48:13.992Z,9.40
2018-07-13T23:50:42.474Z,13.53
2018-07-13T23:53:10.969Z,15.30
2018-07-13T23:55:39.508Z,46.50
2018-07-13T23:58:07.977Z,24.83
